Time;durP1;ratioP1;P1;durP2;ratioP2;P2;SDS_P1;SDS_P2;PMS_P1;PMS_P2;Temp;Humidity;BMP_temperature;BMP_pressure;BME280_temperature;BME280_humidity;BME280_pressure;Samples;Min_cycle;Max_cycle;Signal;HPM_P1;HPM_P2
2024/03/29 00:01:04;;;;;;;2.03;1.50;;;7.80;1.00;;;;;;5077216;28;20513;-69
2024/03/29 00:03:29;;;;;;;3.10;1.47;;;7.80;1.00;;;;;;5073199;28;20181;-71
2024/03/29 00:05:55;;;;;;;2.33;1.30;;;7.80;1.00;;;;;;5091410;28;20184;-68
2024/03/29 00:08:20;;;;;;;2.67;1.87;;;8.00;1.00;;;;;;5078250;28;20215;-68
2024/03/29 00:10:49;;;;;;;1.50;1.00;;;8.10;1.00;;;;;;5075119;28;20624;-67
2024/03/29 00:13:14;;;;;;;2.73;1.50;;;8.10;1.00;;;;;;5075455;28;20221;-68
2024/03/29 00:15:40;;;;;;;2.00;1.30;;;8.10;1.00;;;;;;5075071;28;20971;-67
2024/03/29 00:18:06;;;;;;;2.20;1.40;;;8.10;1.00;;;;;;5056969;28;20197;-69
2024/03/29 00:20:32;;;;;;;2.37;1.40;;;8.10;1.00;;;;;;5093205;28;20184;-69
2024/03/29 00:22:57;;;;;;;1.90;1.37;;;8.10;1.00;;;;;;5076129;28;20420;-68
2024/03/29 00:25:23;;;;;;;1.80;1.40;;;8.00;1.00;;;;;;5077186;28;20525;-69
2024/03/29 00:27:48;;;;;;;2.63;1.40;;;8.00;1.00;;;;;;5093036;28;20717;-68
2024/03/29 00:30:14;;;;;;;2.47;1.60;;;8.00;1.00;;;;;;5094800;28;20184;-68
2024/03/29 00:32:40;;;;;;;2.47;1.63;;;8.10;1.00;;;;;;5076541;28;20191;-69
2024/03/29 00:35:06;;;;;;;4.53;2.30;;;8.10;1.00;;;;;;5078142;28;20594;-69
2024/03/29 00:37:34;;;;;;;2.77;1.67;;;8.00;1.00;;;;;;5073938;28;20218;-68
2024/03/29 00:40:00;;;;;;;3.60;1.60;;;7.90;1.00;;;;;;5074462;28;20413;-69
2024/03/29 00:42:25;;;;;;;3.07;1.50;;;7.70;1.00;;;;;;5056183;28;20418;-68
2024/03/29 00:44:51;;;;;;;4.47;1.80;;;7.60;1.00;;;;;;5056465;28;20179;-68
2024/03/29 00:47:16;;;;;;;3.20;1.27;;;7.50;1.00;;;;;;5056387;28;20650;-69
2024/03/29 00:49:42;;;;;;;1.60;1.10;;;7.30;1.00;;;;;;5075273;28;20682;-69
2024/03/29 00:52:07;;;;;;;1.80;1.10;;;7.30;1.00;;;;;;5074108;28;20184;-67
2024/03/29 00:54:33;;;;;;;2.03;0.90;;;7.20;1.00;;;;;;5074616;28;20197;-70
2024/03/29 00:56:59;;;;;;;2.00;1.40;;;7.00;1.00;;;;;;5073975;28;20217;-68
2024/03/29 00:59:24;;;;;;;1.93;1.13;;;7.00;1.00;;;;;;5074117;28;20178;-68
2024/03/29 01:01:50;;;;;;;2.13;0.87;;;7.00;1.00;;;;;;5074328;28;20170;-68
2024/03/29 01:04:16;;;;;;;2.20;1.30;;;6.90;1.00;;;;;;5094216;28;20186;-69
2024/03/29 01:06:42;;;;;;;2.90;1.40;;;6.90;1.00;;;;;;5076090;28;20439;-68
2024/03/29 01:09:11;;;;;;;3.17;0.80;;;6.90;1.00;;;;;;5094166;28;20174;-69
2024/03/29 01:11:37;;;;;;;2.43;1.10;;;6.90;1.00;;;;;;5094303;28;20525;-68
2024/03/29 01:14:03;;;;;;;1.60;0.93;;;6.90;1.00;;;;;;5094239;28;20415;-70
2024/03/29 01:16:29;;;;;;;1.67;0.83;;;7.00;1.00;;;;;;5094008;28;20459;-68
2024/03/29 01:18:55;;;;;;;2.87;1.57;;;7.00;1.00;;;;;;5094082;28;20447;-68
2024/03/29 01:21:20;;;;;;;1.60;0.80;;;6.90;1.00;;;;;;5093068;28;20802;-68
2024/03/29 01:23:46;;;;;;;2.00;1.00;;;6.90;1.00;;;;;;5076174;28;20178;-68
2024/03/29 01:26:12;;;;;;;1.70;0.80;;;7.00;1.00;;;;;;5094631;28;20262;-68
2024/03/29 01:28:38;;;;;;;1.70;1.00;;;7.00;1.00;;;;;;5094285;28;20625;-69
2024/03/29 01:31:04;;;;;;;1.67;0.90;;;7.00;1.00;;;;;;5094135;28;20451;-69
2024/03/29 01:33:36;;;;;;;2.00;1.00;;;7.10;1.00;;;;;;5094020;28;20175;-68
2024/03/29 01:36:02;;;;;;;1.70;0.70;;;7.10;1.00;;;;;;5075851;28;20759;-69
2024/03/29 01:38:27;;;;;;;2.43;1.10;;;7.10;1.00;;;;;;5075299;28;20467;-69
2024/03/29 01:40:53;;;;;;;2.47;1.37;;;7.00;1.00;;;;;;5093929;28;20189;-69
2024/03/29 01:43:18;;;;;;;1.60;0.80;;;7.00;1.00;;;;;;5075228;28;20186;-70
2024/03/29 01:45:47;;;;;;;3.40;1.00;;;7.00;1.00;;;;;;5093293;28;20206;-69
2024/03/29 01:48:13;;;;;;;1.70;1.00;;;7.00;1.00;;;;;;5075027;28;20198;-68
2024/03/29 01:50:39;;;;;;;2.10;1.07;;;7.00;1.00;;;;;;5093388;28;20414;-68
2024/03/29 01:53:07;;;;;;;1.73;0.80;;;7.00;1.00;;;;;;5075112;28;20174;-69
2024/03/29 01:55:34;;;;;;;1.50;0.90;;;7.00;1.00;;;;;;5093099;28;20652;-69
2024/03/29 01:57:59;;;;;;;2.07;1.00;;;7.00;1.00;;;;;;5093191;28;20463;-68
2024/03/29 02:00:26;;;;;;;3.00;1.43;;;7.10;1.00;;;;;;5075043;28;20795;-69
2024/03/29 02:02:52;;;;;;;2.03;1.20;;;7.10;1.00;;;;;;5093238;28;20495;-68
2024/03/29 02:05:18;;;;;;;2.43;1.00;;;7.10;1.00;;;;;;5093521;28;20438;-69
2024/03/29 02:07:47;;;;;;;1.70;1.03;;;7.10;1.00;;;;;;5074410;28;20467;-68
2024/03/29 02:10:13;;;;;;;2.10;1.03;;;7.10;1.00;;;;;;5075154;28;20420;-69
2024/03/29 02:12:39;;;;;;;2.13;1.40;;;7.10;1.00;;;;;;5093778;28;20515;-69
2024/03/29 02:15:05;;;;;;;2.53;1.00;;;7.10;1.00;;;;;;5089131;28;20444;-72
2024/03/29 02:17:32;;;;;;;3.00;1.50;;;7.20;1.00;;;;;;5072645;28;20460;-70
2024/03/29 02:19:57;;;;;;;2.43;1.73;;;7.20;1.00;;;;;;5072549;28;20466;-69
2024/03/29 02:22:24;;;;;;;1.87;0.97;;;7.30;1.00;;;;;;5072802;28;20409;-68
2024/03/29 02:24:51;;;;;;;2.33;1.37;;;7.30;1.00;;;;;;5055614;28;20185;-68
2024/03/29 02:27:17;;;;;;;1.90;1.10;;;7.30;1.00;;;;;;5054646;28;20459;-67
2024/03/29 02:29:42;;;;;;;1.80;1.10;;;7.30;1.00;;;;;;5072787;28;20433;-69
2024/03/29 02:32:08;;;;;;;1.80;0.80;;;7.30;1.00;;;;;;5054796;28;20178;-69
2024/03/29 02:34:34;;;;;;;2.03;1.30;;;7.30;1.00;;;;;;5054702;28;20183;-69
2024/03/29 02:36:59;;;;;;;2.00;0.90;;;7.20;1.00;;;;;;5072380;28;20226;-67
2024/03/29 02:39:25;;;;;;;3.10;1.20;;;7.20;1.00;;;;;;5074887;28;20262;-69
2024/03/29 02:41:51;;;;;;;1.90;1.10;;;7.20;1.00;;;;;;5093148;28;20166;-68
2024/03/29 02:44:16;;;;;;;1.60;1.00;;;7.20;1.00;;;;;;5092869;28;20170;-68
2024/03/29 02:46:42;;;;;;;1.60;1.00;;;7.20;1.00;;;;;;5092564;28;20957;-69
2024/03/29 02:49:09;;;;;;;2.60;1.03;;;7.20;1.00;;;;;;5092902;28;20700;-68
2024/03/29 02:51:35;;;;;;;3.17;1.07;;;7.20;1.00;;;;;;5092702;28;20180;-69
2024/03/29 02:54:01;;;;;;;2.10;0.93;;;7.10;1.00;;;;;;5092272;28;20419;-68
2024/03/29 02:56:27;;;;;;;1.90;1.17;;;7.10;1.00;;;;;;5092189;28;20991;-68
2024/03/29 02:58:54;;;;;;;1.60;0.87;;;7.00;1.00;;;;;;5092354;28;20409;-68
2024/03/29 03:01:20;;;;;;;2.70;1.50;;;7.00;1.00;;;;;;5092458;28;20416;-68
2024/03/29 03:03:45;;;;;;;2.60;1.07;;;7.00;1.00;;;;;;5092413;28;20403;-68
2024/03/29 03:06:11;;;;;;;2.33;1.20;;;7.00;1.00;;;;;;5060725;28;20186;-69
2024/03/29 03:11:20;;;;;;;1.80;1.03;;;7.20;1.00;;;;;;5092359;28;20237;-68
2024/03/29 03:13:46;;;;;;;2.43;1.30;;;7.30;1.00;;;;;;5092116;28;20420;-68
2024/03/29 03:16:11;;;;;;;1.50;1.00;;;7.40;1.00;;;;;;5091731;28;20216;-67
2024/03/29 03:18:37;;;;;;;1.70;1.20;;;7.40;1.00;;;;;;5073467;28;20211;-69
2024/03/29 03:21:03;;;;;;;2.47;1.07;;;7.50;1.00;;;;;;5087393;28;20182;-69
2024/03/29 03:23:28;;;;;;;1.60;1.00;;;7.60;1.00;;;;;;5072070;28;20175;-69
2024/03/29 03:25:58;;;;;;;9.10;1.50;;;7.60;1.00;;;;;;5053712;28;20207;-67
2024/03/29 03:28:23;;;;;;;1.70;1.10;;;7.70;1.00;;;;;;5071515;28;20665;-69
2024/03/29 03:30:51;;;;;;;3.30;1.20;;;7.70;1.00;;;;;;5072000;28;20433;-67
2024/03/29 03:33:16;;;;;;;1.77;1.10;;;7.70;1.00;;;;;;5071949;28;20179;-69
2024/03/29 03:35:43;;;;;;;2.63;1.20;;;7.70;1.00;;;;;;5081885;28;20416;-68
2024/03/29 03:38:09;;;;;;;1.73;1.23;;;7.80;1.00;;;;;;5076633;22;20505;-66
2024/03/29 03:40:35;;;;;;;2.40;1.50;;;7.80;1.00;;;;;;5051987;28;20403;-67
2024/03/29 03:43:08;;;;;;;2.10;1.20;;;7.90;1.00;;;;;;5053040;28;20917;-67
2024/03/29 03:45:40;;;;;;;2.33;1.30;;;7.90;1.00;;;;;;5058858;28;20413;-69
2024/03/29 03:48:08;;;;;;;2.20;1.20;;;8.10;1.00;;;;;;5058381;28;20441;-69
2024/03/29 03:50:33;;;;;;;1.70;1.23;;;8.20;1.00;;;;;;5058804;28;20745;-69
2024/03/29 03:53:00;;;;;;;4.53;1.50;;;8.20;1.00;;;;;;5058776;28;20421;-67
2024/03/29 03:55:25;;;;;;;2.00;1.47;;;8.30;1.00;;;;;;5058645;28;20635;-66
2024/03/29 03:57:52;;;;;;;2.00;1.57;;;8.40;1.00;;;;;;5058058;28;20590;-66
2024/03/29 04:00:22;;;;;;;3.60;1.40;;;8.40;1.00;;;;;;5054363;28;20217;-68
2024/03/29 04:02:49;;;;;;;3.07;1.30;;;8.40;1.00;;;;;;5038382;28;20408;-68
2024/03/29 04:05:15;;;;;;;2.27;1.60;;;8.50;1.00;;;;;;5038660;28;20411;-68
2024/03/29 04:07:41;;;;;;;1.70;1.47;;;8.50;1.00;;;;;;5038064;28;20472;-68
2024/03/29 04:10:07;;;;;;;2.87;1.50;;;8.50;1.00;;;;;;5038236;28;21004;-67
2024/03/29 04:12:32;;;;;;;1.60;1.20;;;8.50;1.00;;;;;;5038093;28;20267;-67
2024/03/29 04:14:58;;;;;;;1.80;1.30;;;8.50;1.00;;;;;;5038019;28;20419;-67
2024/03/29 04:17:23;;;;;;;1.63;1.27;;;8.50;1.00;;;;;;5038007;28;20216;-68
2024/03/29 04:19:49;;;;;;;2.00;1.30;;;8.50;1.00;;;;;;5037901;28;20229;-67
2024/03/29 04:22:14;;;;;;;2.43;1.40;;;8.50;1.00;;;;;;5036802;28;20184;-68
2024/03/29 04:24:40;;;;;;;1.70;1.27;;;8.50;1.00;;;;;;5037980;28;20182;-67
2024/03/29 04:27:05;;;;;;;1.60;1.20;;;8.50;1.00;;;;;;5037837;28;20688;-68
2024/03/29 04:29:31;;;;;;;1.60;1.17;;;8.50;1.00;;;;;;5037750;28;20192;-67
2024/03/29 04:31:56;;;;;;;1.60;1.23;;;8.60;1.00;;;;;;5038005;28;20190;-67
2024/03/29 04:34:22;;;;;;;3.30;1.70;;;8.60;1.00;;;;;;5038170;28;20190;-67
2024/03/29 04:36:47;;;;;;;1.67;1.30;;;8.60;1.00;;;;;;5037713;28;20309;-68
2024/03/29 04:39:13;;;;;;;3.47;1.77;;;8.70;1.00;;;;;;5037856;28;20610;-67
2024/03/29 04:41:39;;;;;;;2.00;1.50;;;8.70;1.00;;;;;;5037851;28;20681;-68
2024/03/29 04:44:04;;;;;;;1.97;1.40;;;8.80;1.00;;;;;;5037807;28;20186;-67
2024/03/29 04:46:31;;;;;;;1.80;1.50;;;8.80;1.00;;;;;;5037687;28;20259;-68
2024/03/29 04:48:57;;;;;;;2.00;1.43;;;8.90;1.00;;;;;;5037619;28;21011;-68
2024/03/29 04:51:23;;;;;;;1.60;1.20;;;8.90;1.00;;;;;;5037759;28;20408;-68
2024/03/29 04:53:48;;;;;;;1.97;1.43;;;9.00;1.00;;;;;;5037989;28;20941;-67
2024/03/29 04:56:14;;;;;;;1.60;1.40;;;8.90;1.00;;;;;;5039494;28;20207;-67
2024/03/29 04:58:39;;;;;;;2.20;1.63;;;8.90;1.00;;;;;;5054143;28;20676;-67
2024/03/29 05:01:05;;;;;;;1.97;1.77;;;8.90;1.00;;;;;;5054740;28;20178;-68
2024/03/29 05:03:30;;;;;;;4.50;1.97;;;9.00;1.00;;;;;;5054585;28;20234;-67
2024/03/29 05:05:56;;;;;;;1.97;1.73;;;9.00;1.00;;;;;;5052914;28;20760;-68
2024/03/29 05:08:22;;;;;;;1.60;1.50;;;9.10;1.00;;;;;;5053589;28;20284;-68
2024/03/29 05:10:50;;;;;;;2.17;1.70;;;9.10;1.00;;;;;;5054279;28;20231;-68
2024/03/29 05:13:15;;;;;;;1.90;1.50;;;9.20;1.00;;;;;;5054324;28;20412;-68
2024/03/29 05:15:41;;;;;;;1.90;1.80;;;9.30;1.00;;;;;;5054865;28;20422;-68
2024/03/29 05:18:06;;;;;;;2.00;1.63;;;9.30;1.00;;;;;;5068973;28;20459;-67
2024/03/29 05:20:32;;;;;;;1.93;1.73;;;9.40;1.00;;;;;;5064948;28;20310;-67
2024/03/29 05:22:58;;;;;;;1.70;1.60;;;9.40;1.00;;;;;;5039436;28;20186;-67
2024/03/29 05:25:24;;;;;;;1.90;1.63;;;9.30;1.00;;;;;;5034218;28;20260;-68
2024/03/29 05:27:50;;;;;;;3.80;2.27;;;9.30;1.00;;;;;;5049134;28;20476;-67
2024/03/29 05:30:16;;;;;;;2.33;1.90;;;9.40;1.00;;;;;;5055231;28;20458;-67
2024/03/29 05:32:42;;;;;;;1.93;1.73;;;9.40;1.00;;;;;;5047798;28;20642;-66
2024/03/29 05:35:08;;;;;;;2.00;1.80;;;9.50;1.00;;;;;;5034103;28;20179;-66
2024/03/29 05:37:35;;;;;;;1.90;1.60;;;9.50;1.00;;;;;;5033591;28;20922;-66
2024/03/29 05:40:04;;;;;;;1.77;1.60;;;9.50;1.00;;;;;;5034080;28;20427;-67
2024/03/29 05:42:31;;;;;;;1.70;1.60;;;9.60;1.00;;;;;;5033827;28;20758;-66
2024/03/29 05:44:57;;;;;;;1.90;1.70;;;9.60;1.00;;;;;;5032586;28;20445;-66
2024/03/29 05:47:22;;;;;;;2.30;1.87;;;9.60;1.00;;;;;;5039820;28;20449;-67
2024/03/29 05:49:48;;;;;;;2.50;1.73;;;9.60;1.00;;;;;;5041955;28;20595;-68
2024/03/29 05:52:14;;;;;;;3.00;1.70;;;9.40;1.00;;;;;;5032338;28;20182;-68
2024/03/29 05:54:40;;;;;;;2.83;1.90;;;9.40;1.00;;;;;;5032340;28;20938;-68
2024/03/29 05:57:09;;;;;;;5.07;2.30;;;9.30;1.00;;;;;;5033521;28;20309;-68
2024/03/29 05:59:35;;;;;;;3.43;2.43;;;9.30;1.00;;;;;;5033575;28;20437;-68
2024/03/29 06:02:01;;;;;;;3.70;2.23;;;9.10;1.00;;;;;;5046238;28;20974;-68
2024/03/29 06:04:32;;;;;;;4.13;1.60;;;9.10;1.00;;;;;;5052173;28;20514;-68
2024/03/29 06:07:01;;;;;;;3.30;2.00;;;9.00;1.00;;;;;;5051703;28;20205;-70
2024/03/29 06:09:27;;;;;;;2.50;1.60;;;9.20;1.00;;;;;;5052972;28;20420;-68
2024/03/29 06:11:55;;;;;;;3.13;2.30;;;9.30;1.00;;;;;;5053233;28;20423;-68
2024/03/29 06:17:22;;;;;;;2.00;1.50;;;9.70;1.00;;;;;;5037023;28;20613;-69
2024/03/29 06:19:51;;;;;;;2.43;1.70;;;9.70;1.00;;;;;;5032949;28;20829;-70
2024/03/29 06:22:20;;;;;;;1.80;1.50;;;9.90;1.00;;;;;;5032978;28;20923;-69
2024/03/29 06:24:46;;;;;;;2.10;1.70;;;9.90;1.00;;;;;;5033028;28;20420;-68
2024/03/29 06:27:16;;;;;;;2.63;2.00;;;10.20;1.00;;;;;;5042946;28;20942;-68
2024/03/29 06:29:41;;;;;;;2.57;1.50;;;10.30;1.00;;;;;;5051466;28;20900;-68
2024/03/29 06:32:07;;;;;;;2.47;1.50;;;10.40;1.00;;;;;;5053514;28;20420;-71
2024/03/29 06:34:33;;;;;;;1.60;1.40;;;10.70;1.00;;;;;;5052811;28;20548;-68
2024/03/29 06:36:58;;;;;;;3.00;1.73;;;11.10;1.00;;;;;;5052430;28;20566;-68
2024/03/29 06:39:25;;;;;;;1.80;1.47;;;11.40;1.00;;;;;;5052739;28;20171;-69
2024/03/29 06:41:51;;;;;;;2.40;1.80;;;11.60;1.00;;;;;;5042384;28;20277;-68
2024/03/29 06:44:17;;;;;;;2.27;1.80;;;11.90;1.00;;;;;;5032769;28;20453;-68
2024/03/29 06:46:42;;;;;;;2.20;1.90;;;12.00;1.00;;;;;;5050887;28;20582;-69
2024/03/29 06:49:08;;;;;;;2.20;1.70;;;12.00;1.00;;;;;;5051550;28;20190;-68
2024/03/29 06:51:33;;;;;;;1.93;1.73;;;12.00;1.00;;;;;;5051843;28;20187;-68
2024/03/29 06:53:59;;;;;;;2.20;1.90;;;12.00;1.00;;;;;;5051358;28;20186;-68
2024/03/29 06:56:24;;;;;;;3.20;1.90;;;12.00;1.00;;;;;;5052326;28;20217;-68
2024/03/29 06:58:50;;;;;;;1.90;1.50;;;12.00;1.00;;;;;;5050311;28;20199;-68
2024/03/29 07:01:15;;;;;;;2.90;1.77;;;12.00;1.00;;;;;;5050869;28;20172;-69
2024/03/29 07:03:41;;;;;;;2.30;1.80;;;12.10;1.00;;;;;;5052099;28;20179;-67
2024/03/29 07:06:06;;;;;;;2.00;1.40;;;12.10;1.00;;;;;;5052194;28;20171;-68
2024/03/29 07:08:32;;;;;;;1.97;1.67;;;12.10;1.00;;;;;;5051821;28;20198;-68
2024/03/29 07:10:59;;;;;;;2.20;1.40;;;12.00;1.00;;;;;;5052182;28;20202;-68
2024/03/29 07:13:24;;;;;;;2.13;1.53;;;11.90;1.00;;;;;;5050337;28;20179;-69
2024/03/29 07:15:53;;;;;;;1.80;1.37;;;11.80;1.00;;;;;;5051438;28;20920;-68
2024/03/29 07:18:18;;;;;;;2.27;1.60;;;11.90;1.00;;;;;;5050542;28;20241;-68
2024/03/29 07:20:44;;;;;;;2.50;1.87;;;11.90;1.00;;;;;;5050738;28;20471;-68
2024/03/29 07:23:11;;;;;;;2.73;1.80;;;12.00;1.00;;;;;;5049529;28;20180;-67
2024/03/29 07:25:37;;;;;;;2.23;1.53;;;12.00;1.00;;;;;;5051422;28;20672;-67
2024/03/29 07:28:02;;;;;;;1.93;1.23;;;11.90;1.00;;;;;;5054816;28;20474;-68
2024/03/29 07:30:28;;;;;;;2.27;1.57;;;11.90;1.00;;;;;;5053158;28;20190;-66
2024/03/29 07:32:53;;;;;;;1.70;1.47;;;11.80;1.00;;;;;;5054173;28;20261;-67
2024/03/29 07:35:19;;;;;;;2.20;1.30;;;11.80;1.00;;;;;;5052237;28;20645;-71
2024/03/29 07:37:47;;;;;;;2.17;1.33;;;11.70;1.00;;;;;;5051914;28;20214;-68
2024/03/29 07:40:13;;;;;;;1.83;1.30;;;11.70;1.00;;;;;;5051477;28;20174;-68
2024/03/29 07:42:38;;;;;;;2.83;1.50;;;11.70;1.00;;;;;;5045986;28;20436;-68
2024/03/29 07:45:04;;;;;;;4.30;3.90;;;11.90;1.00;;;;;;5047823;28;20621;-68
2024/03/29 07:47:30;;;;;;;4.70;4.00;;;12.20;1.00;;;;;;5047336;28;20368;-67
2024/03/29 07:49:55;;;;;;;1.70;1.23;;;12.40;1.00;;;;;;5051850;28;20556;-67
2024/03/29 07:52:21;;;;;;;2.33;1.30;;;12.50;1.00;;;;;;5050413;28;20264;-68
2024/03/29 07:54:47;;;;;;;2.57;1.63;;;12.40;1.00;;;;;;5047561;28;20194;-67
2024/03/29 07:57:14;;;;;;;4.60;1.70;;;12.00;1.00;;;;;;5046800;28;20243;-66
2024/03/29 07:59:40;;;;;;;2.40;1.50;;;11.70;1.00;;;;;;5047541;28;20513;-68
2024/03/29 08:02:06;;;;;;;10.50;4.47;;;11.30;1.00;;;;;;5047591;28;20428;-67
2024/03/29 08:04:31;;;;;;;2.67;1.77;;;11.10;1.00;;;;;;5047216;28;20538;-67
2024/03/29 08:06:57;;;;;;;5.00;1.87;;;11.10;1.00;;;;;;5047580;28;20570;-67
2024/03/29 08:09:22;;;;;;;3.23;2.03;;;11.10;1.00;;;;;;5046958;28;20190;-67
2024/03/29 08:11:48;;;;;;;2.03;1.33;;;10.80;1.00;;;;;;5046577;28;20244;-68
2024/03/29 08:14:13;;;;;;;3.40;1.93;;;10.90;1.00;;;;;;5048146;28;20197;-67
2024/03/29 08:16:40;;;;;;;2.17;1.30;;;10.90;1.00;;;;;;5047357;28;20222;-67
2024/03/29 08:19:05;;;;;;;2.20;1.80;;;11.00;1.00;;;;;;5047825;28;20194;-67
2024/03/29 08:21:31;;;;;;;3.27;1.73;;;11.10;1.00;;;;;;5048692;28;20467;-67
2024/03/29 08:23:57;;;;;;;1.90;1.27;;;11.00;1.00;;;;;;5048147;28;20194;-66
2024/03/29 08:26:23;;;;;;;5.43;1.77;;;11.00;1.00;;;;;;5051313;28;20610;-70
2024/03/29 08:28:48;;;;;;;2.60;1.83;;;11.10;1.00;;;;;;5047416;28;20440;-67
2024/03/29 08:31:15;;;;;;;2.50;1.77;;;11.20;1.00;;;;;;5050823;28;20190;-66
2024/03/29 08:33:41;;;;;;;2.53;1.87;;;11.20;1.00;;;;;;5051027;28;20187;-68
2024/03/29 08:36:08;;;;;;;2.53;1.83;;;11.30;1.00;;;;;;5048711;28;21022;-68
2024/03/29 08:38:34;;;;;;;2.43;1.33;;;11.70;1.00;;;;;;5056033;28;20597;-68
2024/03/29 08:41:00;;;;;;;2.20;1.80;;;11.90;1.00;;;;;;5072927;28;20506;-68
2024/03/29 08:43:26;;;;;;;3.00;2.30;;;12.30;1.00;;;;;;5075063;28;20413;-68
2024/03/29 08:45:51;;;;;;;3.23;2.03;;;12.40;1.00;;;;;;5073579;28;20412;-68
2024/03/29 08:48:17;;;;;;;2.67;1.90;;;12.60;1.00;;;;;;5054974;28;20435;-68
2024/03/29 08:50:43;;;;;;;3.53;1.57;;;12.60;1.00;;;;;;5054730;28;20175;-68
2024/03/29 08:53:08;;;;;;;3.63;2.00;;;12.40;1.00;;;;;;5054856;28;20677;-69
2024/03/29 08:55:36;;;;;;;3.20;2.73;;;12.30;1.00;;;;;;5054860;28;20550;-68
2024/03/29 08:58:02;;;;;;;12.67;4.43;;;12.30;1.00;;;;;;5054714;28;20633;-68
2024/03/29 09:00:29;;;;;;;2.77;1.43;;;12.20;1.00;;;;;;5054504;28;20883;-68
2024/03/29 09:02:56;;;;;;;4.70;2.30;;;12.40;1.00;;;;;;5054437;28;20400;-72
2024/03/29 09:05:25;;;;;;;3.27;2.37;;;12.40;1.00;;;;;;5054496;28;20415;-68
2024/03/29 09:07:51;;;;;;;3.90;3.13;;;12.40;1.00;;;;;;5055620;28;20444;-68
2024/03/29 09:10:17;;;;;;;4.43;2.70;;;12.40;1.00;;;;;;5055154;28;20782;-68
2024/03/29 09:12:43;;;;;;;4.47;2.07;;;12.60;1.00;;;;;;5054167;28;20175;-68
2024/03/29 09:15:13;;;;;;;3.97;2.20;;;12.80;1.00;;;;;;5060180;28;20477;-67
2024/03/29 09:17:41;;;;;;;2.90;1.93;;;12.60;1.00;;;;;;5074270;28;20489;-67
2024/03/29 09:20:07;;;;;;;4.03;1.93;;;12.70;1.00;;;;;;5074596;28;20450;-68
2024/03/29 09:22:34;;;;;;;2.57;1.53;;;12.60;1.00;;;;;;5067073;28;20433;-67
2024/03/29 09:24:59;;;;;;;4.13;2.03;;;12.70;1.00;;;;;;5053892;28;20426;-67
2024/03/29 09:27:26;;;;;;;3.83;2.17;;;12.60;1.00;;;;;;5053905;28;20498;-68
2024/03/29 09:29:52;;;;;;;2.97;1.77;;;12.40;1.00;;;;;;5063953;28;20184;-67
2024/03/29 09:32:19;;;;;;;2.90;2.30;;;12.20;1.00;;;;;;5050752;28;20429;-67
2024/03/29 09:34:45;;;;;;;3.27;1.93;;;12.10;1.00;;;;;;5050984;28;20195;-67
2024/03/29 09:37:11;;;;;;;3.83;2.23;;;12.10;1.00;;;;;;5050401;28;21052;-67
2024/03/29 09:39:36;;;;;;;2.87;1.60;;;11.80;1.00;;;;;;5049627;28;20673;-67
2024/03/29 09:42:06;;;;;;;4.20;2.23;;;11.70;1.00;;;;;;5049286;28;20558;-68
2024/03/29 09:44:35;;;;;;;3.13;1.80;;;11.70;1.00;;;;;;5050507;28;20255;-67
2024/03/29 09:47:04;;;;;;;3.37;1.83;;;12.00;1.00;;;;;;5049604;28;20444;-66
2024/03/29 09:49:33;;;;;;;4.03;1.80;;;;;;;;;;5048725;28;20424;-67
2024/03/29 09:51:59;;;;;;;3.13;1.87;;;12.80;1.00;;;;;;5051203;28;20422;-67
2024/03/29 09:54:28;;;;;;;2.40;1.90;;;13.10;1.00;;;;;;5069576;28;20529;-69
2024/03/29 09:56:57;;;;;;;3.30;2.37;;;13.40;1.00;;;;;;5069213;28;20898;-66
2024/03/29 09:59:26;;;;;;;3.20;1.70;;;13.40;1.00;;;;;;5062690;28;20440;-68
2024/03/29 10:01:53;;;;;;;7.90;2.43;;;13.30;1.00;;;;;;5049974;28;20432;-68
2024/03/29 10:04:21;;;;;;;2.80;2.33;;;;;;;;;;5052702;28;20922;-69
2024/03/29 10:06:49;;;;;;;2.87;2.40;;;14.00;1.00;;;;;;5052716;28;20775;-69
2024/03/29 10:09:18;;;;;;;3.40;2.80;;;14.20;1.00;;;;;;5052191;28;20534;-67
2024/03/29 10:11:44;;;;;;;10.30;2.83;;;14.50;1.00;;;;;;5052318;28;20432;-67
2024/03/29 10:14:10;;;;;;;3.40;2.47;;;14.20;1.00;;;;;;5053035;28;20522;-68
2024/03/29 10:16:35;;;;;;;2.83;1.57;;;14.40;1.00;;;;;;5051706;28;20559;-67
2024/03/29 10:19:02;;;;;;;2.53;2.03;;;14.30;1.00;;;;;;5052729;28;20658;-68
2024/03/29 10:21:27;;;;;;;3.57;2.67;;;14.60;1.00;;;;;;5053209;28;20178;-66
2024/03/29 10:23:54;;;;;;;3.70;2.40;;;14.80;1.00;;;;;;5052800;28;20508;-67
2024/03/29 10:26:20;;;;;;;3.27;2.37;;;15.40;1.00;;;;;;5051759;28;20191;-66
2024/03/29 10:28:47;;;;;;;3.80;2.33;;;;;;;;;;5052498;28;20440;-68
2024/03/29 10:31:13;;;;;;;2.90;2.43;;;16.00;1.00;;;;;;5052639;28;20175;-70
2024/03/29 10:33:41;;;;;;;2.70;2.30;;;16.30;1.00;;;;;;5052716;28;20413;-68
2024/03/29 10:36:09;;;;;;;3.03;2.10;;;16.60;1.00;;;;;;5052930;28;20413;-67
2024/03/29 10:38:36;;;;;;;2.67;2.33;;;16.70;1.00;;;;;;5051257;28;20831;-68
2024/03/29 10:41:03;;;;;;;3.80;2.77;;;16.70;1.00;;;;;;5052912;28;20413;-67
2024/03/29 10:43:29;;;;;;;2.50;2.17;;;17.10;1.00;;;;;;5052569;28;20428;-67
2024/03/29 10:45:59;;;;;;;4.60;2.10;;;16.90;1.00;;;;;;5052718;28;20413;-68
2024/03/29 10:48:27;;;;;;;3.23;2.40;;;16.90;1.00;;;;;;5052480;28;20954;-67
2024/03/29 10:50:54;;;;;;;2.87;2.00;;;17.00;1.00;;;;;;5052477;28;20413;-67
2024/03/29 10:53:22;;;;;;;2.90;2.00;;;17.10;1.00;;;;;;5052739;28;20421;-67
2024/03/29 10:55:50;;;;;;;2.27;1.77;;;17.10;1.00;;;;;;5052460;28;20421;-67
2024/03/29 10:58:19;;;;;;;2.70;1.87;;;17.10;1.00;;;;;;5052594;28;20473;-67
2024/03/29 11:00:49;;;;;;;4.50;2.73;;;16.80;1.00;;;;;;5052480;28;20486;-67
2024/03/29 11:03:27;;;;;;;2.87;1.83;;;17.00;1.00;;;;;;5052262;28;20404;-66
2024/03/29 11:05:55;;;;;;;2.70;1.80;;;16.80;1.00;;;;;;5052466;28;20949;-67
2024/03/29 11:08:27;;;;;;;6.13;2.80;;;16.80;1.00;;;;;;5052171;28;20806;-67
2024/03/29 11:10:56;;;;;;;3.67;2.60;;;16.90;1.00;;;;;;5052410;28;20429;-67
2024/03/29 11:13:40;;;;;;;4.00;2.70;;;16.90;1.00;;;;;;5052483;28;20418;-67
2024/03/29 11:16:06;;;;;;;4.30;2.50;;;17.20;1.00;;;;;;5051777;28;20451;-67
2024/03/29 11:18:32;;;;;;;6.70;2.60;;;17.20;1.00;;;;;;5050318;28;20845;-68
2024/03/29 11:20:59;;;;;;;3.57;2.00;;;17.00;1.00;;;;;;5051917;28;20368;-69
2024/03/29 11:23:27;;;;;;;2.33;1.77;;;16.80;1.00;;;;;;5052358;28;20417;-67
2024/03/29 11:25:54;;;;;;;3.43;2.47;;;16.70;1.00;;;;;;5050333;28;20441;-67
2024/03/29 11:28:26;;;;;;;3.77;1.70;;;16.30;1.00;;;;;;5051620;28;20515;-67
2024/03/29 11:30:53;;;;;;;2.33;1.90;;;16.20;1.00;;;;;;5052049;28;20535;-67
2024/03/29 11:33:30;;;;;;;3.83;1.90;;;16.20;1.00;;;;;;5052213;28;20916;-67
2024/03/29 11:35:59;;;;;;;2.77;1.63;;;16.40;1.00;;;;;;5051459;28;20680;-67
2024/03/29 11:38:35;;;;;;;6.10;1.80;;;16.60;1.00;;;;;;5051628;28;21014;-67
2024/03/29 11:41:09;;;;;;;4.73;1.70;;;16.60;1.00;;;;;;5051627;28;20413;-67
2024/03/29 11:43:37;;;;;;;2.80;1.60;;;16.40;1.00;;;;;;5051891;28;20413;-67
2024/03/29 11:46:05;;;;;;;3.83;1.93;;;16.40;1.00;;;;;;5052020;28;20416;-68
2024/03/29 11:48:31;;;;;;;3.10;2.37;;;16.70;1.00;;;;;;5050103;28;20433;-67
2024/03/29 11:50:57;;;;;;;3.23;2.03;;;16.90;1.00;;;;;;5051620;28;20440;-68
2024/03/29 11:53:23;;;;;;;3.60;2.73;;;17.20;1.00;;;;;;5051815;28;20309;-67
2024/03/29 11:55:53;;;;;;;2.47;1.87;;;17.60;1.00;;;;;;5051544;28;20436;-67
2024/03/29 11:58:20;;;;;;;2.37;1.73;;;18.10;1.00;;;;;;5051403;28;20569;-67
2024/03/29 12:00:47;;;;;;;2.90;1.80;;;18.10;1.00;;;;;;5051702;28;20795;-68
2024/03/29 12:03:13;;;;;;;2.60;1.47;;;17.70;1.00;;;;;;5052010;28;20417;-68
2024/03/29 12:05:39;;;;;;;2.30;1.90;;;17.70;1.00;;;;;;5054972;28;20431;-67
2024/03/29 12:08:05;;;;;;;2.87;1.73;;;17.80;1.00;;;;;;5056225;28;20741;-69
2024/03/29 12:10:31;;;;;;;4.90;1.97;;;18.10;1.00;;;;;;5066439;28;20238;-70
2024/03/29 12:12:57;;;;;;;6.20;1.70;;;18.10;1.00;;;;;;5073373;28;20440;-69
2024/03/29 12:15:27;;;;;;;2.20;1.33;;;17.60;1.00;;;;;;5055042;28;20198;-68
2024/03/29 12:17:55;;;;;;;2.57;1.57;;;17.30;1.00;;;;;;5056908;28;20472;-70
2024/03/29 12:20:20;;;;;;;2.00;1.30;;;17.50;1.00;;;;;;5055810;28;20417;-70
2024/03/29 12:22:46;;;;;;;2.60;1.73;;;17.40;1.00;;;;;;5056293;28;21114;-70
2024/03/29 12:25:12;;;;;;;2.70;2.20;;;17.50;1.00;;;;;;5058983;28;20655;-69
2024/03/29 12:27:38;;;;;;;2.10;1.67;;;17.70;1.00;;;;;;5058464;28;20502;-69
2024/03/29 12:30:06;;;;;;;3.40;1.70;;;17.60;1.00;;;;;;5059136;28;20504;-69
2024/03/29 12:32:34;;;;;;;3.20;1.50;;;17.20;1.00;;;;;;5058818;28;20185;-70
2024/03/29 12:35:13;;;;;;;2.17;1.47;;;16.70;1.00;;;;;;5058590;28;20417;-70
2024/03/29 12:37:46;;;;;;;3.43;2.03;;;16.60;1.00;;;;;;5057640;28;20610;-70
2024/03/29 12:40:12;;;;;;;2.03;1.60;;;16.80;1.00;;;;;;5057959;28;20449;-71
2024/03/29 12:42:39;;;;;;;2.97;1.90;;;17.10;1.00;;;;;;5057895;28;20413;-69
2024/03/29 12:45:06;;;;;;;3.07;1.73;;;16.90;1.00;;;;;;5058463;28;20638;-69
2024/03/29 12:47:33;;;;;;;2.27;1.73;;;17.30;1.00;;;;;;5057585;28;20825;-70
2024/03/29 12:50:00;;;;;;;2.43;1.83;;;17.40;1.00;;;;;;5057760;28;20424;-68
2024/03/29 12:52:26;;;;;;;2.40;1.77;;;17.80;1.00;;;;;;5058220;28;20545;-69
2024/03/29 12:54:52;;;;;;;2.37;1.70;;;17.80;1.00;;;;;;5058451;28;20413;-69
2024/03/29 12:57:17;;;;;;;2.77;1.90;;;18.40;1.00;;;;;;5058658;28;20487;-69
2024/03/29 12:59:46;;;;;;;2.20;1.53;;;18.30;1.00;;;;;;5059311;28;20174;-68
2024/03/29 13:02:12;;;;;;;2.30;1.70;;;18.30;1.00;;;;;;5059244;28;20205;-69
2024/03/29 13:04:42;;;;;;;2.93;1.77;;;18.20;1.00;;;;;;5057709;28;20416;-68